Time;durP1;ratioP1;P1;durP2;ratioP2;P2;SDS_P1;SDS_P2;PMS_P1;PMS_P2;Temp;Humidity;BMP_temperature;BMP_pressure;BME280_temperature;BME280_humidity;BME280_pressure;Samples;Min_cycle;Max_cycle;Signal;HPM_P1;HPM_P2
2023/01/06 00:01:07;;;;;;;7.03;3.57;;;;;;;5.54;100.00;96816.25;5057451;28;20424;-76
2023/01/06 00:03:35;;;;;;;12.20;4.60;;;;;;;5.60;100.00;96825.59;5081038;28;20458;-75
2023/01/06 00:06:03;;;;;;;11.10;5.40;;;;;;;5.39;100.00;96822.47;5055075;28;20436;-76
2023/01/06 00:08:30;;;;;;;16.80;4.57;;;;;;;5.43;100.00;96822.69;5054951;28;20439;-76
2023/01/06 00:10:57;;;;;;;13.97;4.70;;;;;;;5.46;100.00;96817.66;5071269;28;20485;-75
2023/01/06 00:13:24;;;;;;;16.37;5.10;;;;;;;5.57;100.00;96797.31;5071253;28;20882;-75
2023/01/06 00:15:50;;;;;;;13.57;5.43;;;;;;;5.35;100.00;96792.63;5070761;28;21026;-76
2023/01/06 00:18:17;;;;;;;14.40;5.10;;;;;;;5.58;100.00;96794.41;5071444;28;20814;-75
2023/01/06 00:20:44;;;;;;;19.87;6.20;;;;;;;5.32;100.00;96778.22;5069965;28;20488;-75
2023/01/06 00:23:10;;;;;;;15.93;5.13;;;;;;;5.18;100.00;96766.84;5069906;28;20490;-75
2023/01/06 00:25:37;;;;;;;8.50;3.70;;;;;;;5.05;100.00;96751.81;5069910;28;20492;-75
2023/01/06 00:28:04;;;;;;;10.83;4.73;;;;;;;5.09;100.00;96759.91;5071438;28;20618;-75
2023/01/06 00:30:31;;;;;;;12.10;5.57;;;;;;;5.03;100.00;96740.84;5071645;28;20452;-75
2023/01/06 00:32:58;;;;;;;11.17;5.10;;;;;;;5.12;100.00;96751.47;5071336;28;20424;-75
2023/01/06 00:35:24;;;;;;;14.33;4.77;;;;;;;5.14;100.00;96752.75;5071213;28;20812;-75
2023/01/06 00:37:51;;;;;;;12.43;4.57;;;;;;;5.11;100.00;96749.94;5069952;28;20448;-76
2023/01/06 00:40:19;;;;;;;9.20;4.57;;;;;;;5.27;100.00;96777.50;5069703;28;20575;-75
2023/01/06 00:42:45;;;;;;;18.00;4.60;;;;;;;4.88;100.00;96710.34;5071309;28;20474;-75
2023/01/06 00:45:12;;;;;;;7.30;3.53;;;;;;;5.25;100.00;96753.44;5071441;28;20967;-75
2023/01/06 00:47:39;;;;;;;7.47;4.10;;;;;;;5.25;100.00;96758.66;5069858;28;20432;-75
2023/01/06 00:50:06;;;;;;;7.60;3.90;;;;;;;5.54;100.00;96784.78;5069812;28;20808;-75
2023/01/06 00:52:33;;;;;;;10.73;4.83;;;;;;;5.40;100.00;96782.06;5053184;28;20547;-75
2023/01/06 00:54:59;;;;;;;12.80;4.90;;;;;;;5.48;100.00;96781.47;5069515;28;20468;-76
2023/01/06 00:57:27;;;;;;;11.90;4.10;;;;;;;5.49;100.00;96767.28;5069767;28;20451;-75
2023/01/06 00:59:53;;;;;;;12.60;5.23;;;;;;;5.43;100.00;96751.88;5069604;28;20492;-75
2023/01/06 01:02:20;;;;;;;8.13;4.70;;;;;;;5.54;100.00;96756.72;5083189;28;20454;-76
2023/01/06 01:04:47;;;;;;;11.73;3.43;;;;;;;5.53;100.00;96736.78;5069549;28;20464;-75
2023/01/06 01:07:15;;;;;;;9.93;5.20;;;;;;;5.77;100.00;96776.09;5070479;28;20440;-76
2023/01/06 01:09:42;;;;;;;10.80;3.77;;;;;;;5.71;100.00;96737.84;5070954;28;20499;-75
2023/01/06 01:12:13;;;;;;;4.50;3.27;;;;;;;5.78;100.00;96767.16;5069441;28;21019;-75
2023/01/06 01:14:49;;;;;;;14.87;4.23;;;;;;;5.84;100.00;96776.50;5053833;28;20464;-75
2023/01/06 01:17:21;;;;;;;15.43;4.53;;;;;;;5.49;100.00;96742.91;5052895;28;20493;-75
2023/01/06 01:19:49;;;;;;;7.10;4.17;;;;;;;5.65;100.00;96778.34;5042492;28;20463;-75
2023/01/06 01:22:16;;;;;;;9.00;4.77;;;;;;;5.39;100.00;96743.81;5045905;28;20536;-75
2023/01/06 01:24:43;;;;;;;7.20;4.17;;;;;;;5.45;100.00;96755.78;5061670;28;20482;-75
2023/01/06 01:27:10;;;;;;;8.80;4.30;;;;;;;5.41;100.00;96756.63;5065031;28;20441;-75
2023/01/06 01:29:37;;;;;;;4.77;3.07;;;;;;;5.50;100.00;96768.06;5043885;28;20429;-75
2023/01/06 01:32:04;;;;;;;20.83;6.53;;;;;;;5.27;100.00;96725.09;5056064;28;21012;-75
2023/01/06 01:34:34;;;;;;;11.00;4.80;;;;;;;5.52;100.00;96758.84;5073418;28;20455;-75
2023/01/06 01:37:01;;;;;;;9.33;4.83;;;;;;;5.55;100.00;96745.16;5059699;28;20428;-75
2023/01/06 01:39:29;;;;;;;10.27;4.60;;;;;;;5.70;100.00;96743.38;5056941;28;20463;-75
2023/01/06 01:41:58;;;;;;;5.20;3.47;;;;;;;5.56;100.00;96740.69;5073308;28;20464;-75
2023/01/06 01:45:02;;;;;;;6.40;4.20;;;;;;;5.70;100.00;96767.00;5073098;28;20483;-75
2023/01/06 01:47:32;;;;;;;5.87;4.00;;;;;;;5.72;100.00;96757.78;5064864;28;20443;-75
2023/01/06 01:50:21;;;;;;;11.10;5.00;;;;;;;5.67;100.00;96760.47;5059500;28;20446;-75
2023/01/06 01:52:51;;;;;;;11.70;5.10;;;;;;;5.49;100.00;96738.44;5059568;28;20429;-75
2023/01/06 01:55:18;;;;;;;17.23;6.23;;;;;;;5.61;100.00;96757.16;5047752;28;20984;-75
2023/01/06 01:58:22;;;;;;;9.70;4.47;;;;;;;5.59;100.00;96758.47;5066561;28;20535;-75
2023/01/06 02:00:50;;;;;;;13.93;4.80;;;;;;;5.56;100.00;96753.81;5041935;28;20460;-76
2023/01/06 02:03:19;;;;;;;10.03;4.07;;;;;;;5.30;100.00;96708.78;5084748;28;21010;-75
2023/01/06 02:05:51;;;;;;;15.43;5.33;;;;;;;5.43;100.00;96723.81;5070656;28;20463;-75
2023/01/06 02:08:30;;;;;;;11.90;5.07;;;;;;;5.54;100.00;96734.97;5048256;28;20443;-75
2023/01/06 02:10:57;;;;;;;8.27;4.40;;;;;;;5.35;100.00;96711.34;5059258;28;20442;-75
2023/01/06 02:13:24;;;;;;;10.93;5.10;;;;;;;5.40;100.00;96708.66;5061447;28;20447;-75
2023/01/06 02:15:57;;;;;;;8.90;5.60;;;;;;;5.35;100.00;96708.75;5070622;28;20448;-75
2023/01/06 02:19:02;;;;;;;8.30;4.90;;;;;;;5.28;100.00;96703.06;5061913;28;20423;-75
2023/01/06 02:21:51;;;;;;;8.60;5.10;;;;;;;5.30;100.00;96703.53;5043171;28;20796;-75
2023/01/06 02:24:35;;;;;;;11.10;5.23;;;;;;;5.43;100.00;96731.69;5059455;28;20559;-75
2023/01/06 02:27:22;;;;;;;13.80;5.13;;;;;;;5.40;100.00;96723.59;5072391;28;20428;-75
2023/01/06 02:29:57;;;;;;;10.10;4.87;;;;;;;5.39;100.00;96722.06;5080258;28;20875;-76
2023/01/06 02:32:43;;;;;;;18.60;4.90;;;;;;;5.41;100.00;96712.84;5042880;28;20447;-75
2023/01/06 02:35:28;;;;;;;11.03;5.03;;;;;;;5.39;100.00;96712.34;5055591;28;20467;-75
2023/01/06 02:38:20;;;;;;;15.87;5.60;;;;;;;5.41;100.00;96701.56;5052284;28;20461;-74
2023/01/06 02:41:09;;;;;;;7.50;5.70;;;;;;;5.63;100.00;96702.56;5061134;28;20472;-75
2023/01/06 02:43:59;;;;;;;5.63;4.13;;;;;;;5.56;100.00;96685.63;5071592;28;20444;-75
2023/01/06 02:46:36;;;;;;;6.00;4.70;;;;;;;5.56;100.00;96683.78;5042297;28;20425;-75
2023/01/06 02:49:06;;;;;;;10.67;4.00;;;;;;;5.68;100.00;96698.31;5062191;28;20536;-75
2023/01/06 02:51:48;;;;;;;12.40;4.47;;;;;;;5.56;100.00;96664.63;5048944;28;20852;-75
2023/01/06 02:54:40;;;;;;;4.43;4.03;;;;;;;5.84;100.00;96697.00;5052028;28;20455;-75
2023/01/06 02:57:30;;;;;;;5.67;4.60;;;;;;;5.77;100.00;96689.50;5061223;28;20566;-75
2023/01/06 03:00:06;;;;;;;5.20;4.17;;;;;;;5.67;100.00;96702.78;5036073;28;21001;-75
2023/01/06 03:02:36;;;;;;;6.87;4.13;;;;;;;5.66;100.00;96701.22;5065427;28;20436;-75
2023/01/06 03:05:06;;;;;;;3.90;3.53;;;;;;;5.65;100.00;96670.81;5071582;28;20458;-75
2023/01/06 03:07:34;;;;;;;6.77;3.47;;;;;;;5.91;100.00;96685.13;5059269;28;20440;-75
2023/01/06 03:10:04;;;;;;;5.87;3.80;;;;;;;5.79;100.00;96700.50;5071982;28;20532;-75
2023/01/06 03:12:55;;;;;;;7.93;4.57;;;;;;;5.93;100.00;96701.34;5041626;28;20936;-75
2023/01/06 03:15:23;;;;;;;7.77;5.43;;;;;;;5.71;100.00;96680.16;5060245;28;20803;-75
2023/01/06 03:17:50;;;;;;;7.07;4.20;;;;;;;5.73;100.00;96691.13;5083355;28;20831;-75
2023/01/06 03:20:18;;;;;;;3.97;3.63;;;;;;;5.72;100.00;96702.69;5069363;28;20498;-75
2023/01/06 03:22:46;;;;;;;6.17;3.77;;;;;;;5.54;100.00;96674.63;5043830;28;20501;-75
2023/01/06 03:25:13;;;;;;;4.83;3.40;;;;;;;5.73;100.00;96691.13;5045452;28;20457;-75
2023/01/06 03:27:41;;;;;;;5.07;3.77;;;;;;;5.63;100.00;96672.94;5055117;28;20444;-75
2023/01/06 03:30:11;;;;;;;8.57;3.50;;;;;;;5.83;100.00;96693.59;5057834;28;20933;-75
2023/01/06 03:33:03;;;;;;;5.40;4.17;;;;;;;5.78;100.00;96675.31;5061208;28;20441;-75
2023/01/06 03:35:47;;;;;;;4.10;3.57;;;;;;;5.98;100.00;96655.09;5058371;28;20457;-75
2023/01/06 03:38:50;;;;;;;11.70;4.20;;;;;;;6.23;100.00;96686.94;5071199;28;20815;-74
2023/01/06 03:41:22;;;;;;;5.40;4.20;;;;;;;6.30;100.00;96678.69;5068947;28;20460;-75
2023/01/06 03:44:10;;;;;;;4.47;4.07;;;;;;;6.35;100.00;96667.31;5072603;28;20429;-75
2023/01/06 03:47:05;;;;;;;9.07;5.33;;;;;;;6.50;100.00;96694.09;5054464;28;20436;-75
2023/01/06 03:49:40;;;;;;;12.90;4.30;;;;;;;6.25;100.00;96636.00;5070977;28;20843;-74
2023/01/06 03:52:25;;;;;;;5.70;4.57;;;;;;;6.33;100.00;96693.09;5061118;28;20433;-74
2023/01/06 03:55:13;;;;;;;5.47;3.90;;;;;;;5.95;100.00;96666.94;5050275;28;20467;-75
2023/01/06 03:57:49;;;;;;;8.23;7.33;;;;;;;6.33;100.00;96674.72;5072844;28;20425;-78
2023/01/06 04:00:18;;;;;;;14.80;6.23;;;;;;;6.50;100.00;96683.56;5060884;28;20721;-78
2023/01/06 04:02:53;;;;;;;7.93;4.77;;;;;;;6.55;100.00;96674.06;5094608;28;20486;-78
2023/01/06 04:05:25;;;;;;;5.83;5.00;;;;;;;6.43;100.00;96651.69;5073692;28;20459;-75
2023/01/06 04:07:52;;;;;;;8.67;4.77;;;;;;;6.37;100.00;96642.31;5060251;28;20440;-75
2023/01/06 04:10:21;;;;;;;13.03;5.80;;;;;;;6.61;100.00;96676.28;5054436;28;20432;-75
2023/01/06 04:12:51;;;;;;;5.40;4.90;;;;;;;6.42;100.00;96637.00;5054302;28;20441;-75
2023/01/06 04:15:25;;;;;;;6.23;5.10;;;;;;;6.70;100.00;96676.41;5063854;28;20522;-75
2023/01/06 04:17:54;;;;;;;7.63;5.97;;;;;;;6.61;100.00;96665.00;5042451;28;20432;-75
2023/01/06 04:20:31;;;;;;;7.30;5.77;;;;;;;6.56;100.00;96649.34;5040130;28;20461;-75
2023/01/06 04:23:14;;;;;;;8.93;6.50;;;;;;;6.53;100.00;96653.31;5055914;28;20444;-75
2023/01/06 04:25:42;;;;;;;8.30;6.57;;;;;;;6.71;100.00;96665.59;5056781;28;20471;-74
2023/01/06 04:28:36;;;;;;;9.23;4.80;;;;;;;6.68;100.00;96662.78;5064948;28;20469;-75
2023/01/06 04:31:03;;;;;;;9.73;5.70;;;;;;;6.73;100.00;96658.19;5060281;28;20940;-76
2023/01/06 04:33:33;;;;;;;15.77;5.73;;;;;;;6.58;100.00;96628.81;5056377;28;20447;-75
2023/01/06 04:36:03;;;;;;;5.47;4.97;;;;;;;6.66;100.00;96642.03;5070007;28;20448;-75
2023/01/06 04:38:32;;;;;;;5.80;5.20;;;;;;;6.65;100.00;96637.84;5069904;28;20445;-75
2023/01/06 04:40:59;;;;;;;8.60;4.93;;;;;;;6.41;100.00;96590.00;5061762;28;20460;-75
2023/01/06 04:43:26;;;;;;;6.50;4.70;;;;;;;6.55;100.00;96621.53;5053414;28;20464;-74
2023/01/06 04:45:52;;;;;;;9.30;5.13;;;;;;;6.48;100.00;96608.78;5053538;28;21034;-75
2023/01/06 04:48:19;;;;;;;6.00;5.30;;;;;;;6.60;100.00;96616.94;5069887;28;20460;-74
2023/01/06 04:50:46;;;;;;;4.83;4.33;;;;;;;6.34;100.00;96572.00;5069869;28;20427;-76
2023/01/06 04:53:16;;;;;;;5.90;4.50;;;;;;;6.73;100.00;96626.66;5069740;28;20432;-75
2023/01/06 04:55:42;;;;;;;4.83;4.40;;;;;;;6.17;100.00;96535.06;5069656;28;21297;-75
2023/01/06 04:58:09;;;;;;;8.37;6.77;;;;;;;6.91;100.00;96650.47;5063097;28;20494;-75
2023/01/06 05:00:36;;;;;;;5.63;5.13;;;;;;;6.14;100.00;96533.00;5046606;28;20468;-75
2023/01/06 05:03:03;;;;;;;6.17;4.13;;;;;;;6.85;100.00;96651.66;5083180;28;20974;-75
2023/01/06 05:05:29;;;;;;;3.63;3.33;;;;;;;5.78;100.00;96473.31;5070947;28;20448;-75
2023/01/06 05:07:56;;;;;;;8.83;4.30;;;;;;;6.78;100.00;96612.63;5040362;28;20432;-75
2023/01/06 05:10:23;;;;;;;4.27;3.53;;;;;;;6.93;100.00;96619.41;5055817;28;20494;-75
2023/01/06 05:12:49;;;;;;;5.13;3.90;;;;;;;6.95;100.00;96630.44;5069454;28;20420;-75
2023/01/06 05:15:16;;;;;;;5.97;3.70;;;;;;;6.84;100.00;96614.09;5056036;28;20888;-75
2023/01/06 05:17:43;;;;;;;4.33;3.53;;;;;;;7.10;100.00;96638.78;5062438;28;20425;-75
2023/01/06 05:20:10;;;;;;;4.77;4.17;;;;;;;6.94;100.00;96611.25;5063091;28;20907;-75
2023/01/06 05:22:36;;;;;;;4.27;3.03;;;;;;;6.93;100.00;96612.31;5069224;28;20472;-75
2023/01/06 05:25:03;;;;;;;4.20;3.60;;;;;;;7.07;100.00;96631.47;5069322;28;20459;-75
2023/01/06 05:27:30;;;;;;;4.30;3.20;;;;;;;6.97;100.00;96629.06;5070710;28;20459;-75
2023/01/06 05:29:57;;;;;;;4.90;2.97;;;;;;;6.91;100.00;96613.69;5055802;28;20471;-75
2023/01/06 05:32:23;;;;;;;2.77;2.57;;;;;;;6.81;100.00;96610.22;5052796;28;20432;-75
2023/01/06 05:34:50;;;;;;;4.17;2.90;;;;;;;6.90;100.00;96612.91;5057121;28;20441;-75
2023/01/06 05:37:16;;;;;;;4.47;3.23;;;;;;;6.91;100.00;96611.84;5069123;28;20531;-75
2023/01/06 05:39:43;;;;;;;2.73;2.53;;;;;;;7.01;100.00;96613.47;5067878;28;20475;-75
2023/01/06 05:42:10;;;;;;;3.90;3.60;;;;;;;6.91;100.00;96600.53;5057493;28;21031;-75
2023/01/06 05:44:36;;;;;;;4.63;4.23;;;;;;;6.90;100.00;96607.66;5057375;28;20456;-75
2023/01/06 05:47:03;;;;;;;7.43;5.17;;;;;;;6.93;100.00;96607.06;5069087;28;20462;-75
2023/01/06 05:49:30;;;;;;;5.00;3.83;;;;;;;7.04;100.00;96636.53;5068673;28;20428;-75
2023/01/06 05:51:56;;;;;;;4.10;3.70;;;;;;;7.05;100.00;96625.72;5057611;28;20539;-74
2023/01/06 05:54:23;;;;;;;4.07;3.73;;;;;;;6.87;100.00;96597.75;5067069;28;20472;-75
2023/01/06 05:56:49;;;;;;;3.63;3.33;;;;;;;6.89;100.00;96616.63;5041140;28;20471;-75
2023/01/06 05:59:16;;;;;;;3.77;3.20;;;;;;;6.99;100.00;96619.03;5070559;28;20862;-74
2023/01/06 06:01:43;;;;;;;5.53;3.57;;;;;;;6.84;100.00;96603.59;5069025;28;20503;-75
2023/01/06 06:04:11;;;;;;;7.13;4.23;;;;;;;7.02;100.00;96623.69;5068144;28;20472;-75
2023/01/06 06:06:38;;;;;;;6.03;5.53;;;;;;;6.83;100.00;96588.91;5041315;28;20464;-75
2023/01/06 06:09:05;;;;;;;3.63;3.30;;;;;;;7.05;100.00;96609.19;5052241;28;20823;-75
2023/01/06 06:11:31;;;;;;;4.40;3.07;;;;;;;6.94;100.00;96594.69;5079931;28;20519;-74
2023/01/06 06:13:58;;;;;;;3.87;3.47;;;;;;;7.06;100.00;96611.50;5068559;28;20478;-74
2023/01/06 06:16:27;;;;;;;2.87;2.67;;;;;;;7.18;100.00;96620.72;5059594;28;20552;-75
2023/01/06 06:18:56;;;;;;;2.80;2.33;;;;;;;6.98;100.00;96587.78;5045891;28;20875;-75
2023/01/06 06:21:27;;;;;;;2.43;2.23;;;;;;;7.20;100.00;96602.81;5062470;28;20808;-75
2023/01/06 06:23:56;;;;;;;3.00;2.80;;;;;;;6.98;100.00;96569.38;5042426;28;20559;-74
2023/01/06 06:26:23;;;;;;;3.10;2.50;;;;;;;7.20;100.00;96597.53;5056159;28;20539;-75
2023/01/06 06:28:50;;;;;;;2.63;2.43;;;;;;;7.21;100.00;96596.47;5060363;28;20427;-75
2023/01/06 06:31:22;;;;;;;2.83;2.60;;;;;;;7.34;100.00;96622.72;5062058;28;20432;-75
2023/01/06 06:33:56;;;;;;;3.20;2.80;;;;;;;7.33;100.00;96615.91;5065652;28;20426;-76
2023/01/06 06:36:24;;;;;;;2.53;2.17;;;;;;;7.37;100.00;96622.16;5049068;28;20432;-76
2023/01/06 06:38:52;;;;;;;3.70;3.30;;;;;;;7.37;100.00;96618.75;5055845;28;20440;-76
2023/01/06 06:41:19;;;;;;;5.23;3.43;;;;;;;7.09;100.00;96565.47;5049043;28;20992;-75
2023/01/06 06:43:50;;;;;;;3.37;3.17;;;;;;;7.36;100.00;96617.97;5059462;28;20428;-76
2023/01/06 06:46:18;;;;;;;3.27;2.97;;;;;;;7.39;100.00;96609.47;5070964;28;21019;-75
2023/01/06 06:48:44;;;;;;;6.60;2.97;;;;;;;7.39;100.00;96608.69;5060087;28;20436;-75
2023/01/06 06:51:15;;;;;;;2.57;2.37;;;;;;;7.43;100.00;96603.59;5073607;28;20862;-75
2023/01/06 06:53:42;;;;;;;3.33;3.07;;;;;;;7.44;100.00;96594.63;5063494;28;20422;-75
2023/01/06 06:56:10;;;;;;;4.83;2.87;;;;;;;7.45;100.00;96596.19;5065214;28;20479;-75
2023/01/06 06:58:37;;;;;;;4.83;3.13;;;;;;;7.38;100.00;96591.38;5060911;28;20823;-75
2023/01/06 07:01:24;;;;;;;5.37;3.97;;;;;;;7.40;100.00;96589.97;5076277;28;20443;-75
2023/01/06 07:03:51;;;;;;;4.10;3.33;;;;;;;7.17;100.00;96558.72;5079133;28;20943;-75
2023/01/06 07:06:23;;;;;;;3.30;3.00;;;;;;;7.16;100.00;96581.59;5071825;28;20444;-75
2023/01/06 07:08:53;;;;;;;9.53;8.53;;;;;;;7.30;100.00;96613.09;5072690;28;20440;-75
2023/01/06 07:11:20;;;;;;;17.73;14.03;;;;;;;7.31;100.00;96612.03;5065751;28;20453;-75
2023/01/06 07:13:47;;;;;;;3.80;3.40;;;;;;;7.41;100.00;96614.44;5065218;28;20425;-75
2023/01/06 07:16:13;;;;;;;3.23;3.03;;;;;;;7.18;100.00;96576.81;5052916;28;20516;-75
2023/01/06 07:18:40;;;;;;;3.40;3.20;;;;;;;7.14;100.00;96585.59;5065178;28;20428;-74
2023/01/06 07:21:07;;;;;;;4.33;3.93;;;;;;;7.37;100.00;96605.59;5059068;28;20896;-75
2023/01/06 07:23:34;;;;;;;5.20;3.07;;;;;;;7.53;100.00;96621.78;5057745;28;20777;-75
2023/01/06 07:26:02;;;;;;;3.23;2.53;;;;;;;7.15;100.00;96563.50;5063417;28;20421;-75
2023/01/06 07:28:30;;;;;;;2.63;2.37;;;;;;;7.52;100.00;96628.13;5068019;28;20522;-76
2023/01/06 07:30:57;;;;;;;2.70;2.50;;;;;;;7.20;100.00;96563.38;5070908;28;20432;-74
2023/01/06 07:33:24;;;;;;;3.00;2.73;;;;;;;7.58;100.00;96637.44;5041186;28;20444;-75
2023/01/06 07:35:52;;;;;;;2.80;2.60;;;;;;;7.61;100.00;96637.66;5062356;28;20574;-75
2023/01/06 07:38:19;;;;;;;2.90;2.30;;;;;;;7.47;100.00;96620.34;5047872;28;20528;-75
2023/01/06 07:40:46;;;;;;;3.20;3.00;;;;;;;7.53;100.00;96630.47;5060465;28;20428;-75
2023/01/06 07:43:13;;;;;;;31.83;25.97;;;;;;;7.58;100.00;96632.19;5070957;28;20446;-75
2023/01/06 07:45:40;;;;;;;9.47;8.10;;;;;;;7.50;100.00;96630.28;5061484;28;20531;-75
2023/01/06 07:48:08;;;;;;;4.37;3.97;;;;;;;7.66;100.00;96640.16;5067112;28;20472;-75
2023/01/06 07:50:35;;;;;;;4.20;3.93;;;;;;;7.47;100.00;96618.50;5080917;28;20523;-75
2023/01/06 07:53:02;;;;;;;3.50;3.20;;;;;;;7.43;100.00;96630.69;5070998;28;20462;-75
2023/01/06 07:55:29;;;;;;;5.07;4.50;;;;;;;7.49;100.00;96615.59;5063948;28;20456;-75
2023/01/06 07:57:57;;;;;;;12.70;11.50;;;;;;;7.62;100.00;96641.06;5067285;28;20477;-75
2023/01/06 08:00:25;;;;;;;8.97;8.17;;;;;;;7.67;100.00;96646.19;5041552;28;20467;-75
2023/01/06 08:02:51;;;;;;;4.07;3.67;;;;;;;7.57;100.00;96641.94;5063204;28;20507;-75
2023/01/06 08:05:19;;;;;;;5.53;5.00;;;;;;;7.55;100.00;96628.31;5050618;28;20552;-75
2023/01/06 08:07:46;;;;;;;3.80;3.53;;;;;;;7.69;100.00;96646.66;5070228;28;20915;-75
2023/01/06 08:10:13;;;;;;;4.00;2.60;;;;;;;7.59;100.00;96637.16;5070591;28;20429;-74
2023/01/06 08:12:39;;;;;;;4.60;4.20;;;;;;;7.59;100.00;96628.47;5053746;28;20932;-75
2023/01/06 08:15:06;;;;;;;4.40;4.10;;;;;;;7.62;100.00;96627.91;5058251;28;20475;-75
2023/01/06 08:17:33;;;;;;;3.47;3.17;;;;;;;7.56;100.00;96603.56;5063833;28;20441;-75
2023/01/06 08:20:00;;;;;;;3.97;3.67;;;;;;;7.61;100.00;96618.44;5062440;28;20477;-75
2023/01/06 08:22:27;;;;;;;5.57;5.10;;;;;;;7.59;100.00;96616.09;5040378;28;20500;-75
2023/01/06 08:24:53;;;;;;;3.70;3.23;;;;;;;7.61;100.00;96618.44;5078037;28;20480;-75
2023/01/06 08:27:20;;;;;;;3.00;2.40;;;;;;;7.63;100.00;96618.94;5066078;28;20464;-75
2023/01/06 08:29:48;;;;;;;1.80;1.70;;;;;;;7.52;100.00;96596.56;5050235;28;20839;-74
2023/01/06 08:32:16;;;;;;;2.90;2.60;;;;;;;7.71;100.00;96626.88;5063496;28;20451;-75
2023/01/06 08:34:42;;;;;;;2.57;2.37;;;;;;;7.80;100.00;96642.72;5062875;28;20513;-75
2023/01/06 08:37:09;;;;;;;3.37;3.07;;;;;;;7.75;100.00;96623.66;5063887;28;20429;-75
2023/01/06 08:39:36;;;;;;;4.53;4.13;;;;;;;7.64;100.00;96621.25;5046721;28;20448;-75
2023/01/06 08:42:02;;;;;;;5.80;5.30;;;;;;;7.73;100.00;96637.09;5062949;28;20468;-75
2023/01/06 08:44:29;;;;;;;4.97;2.70;;;;;;;7.67;100.00;96617.25;5063469;28;20456;-75
2023/01/06 08:46:56;;;;;;;4.33;3.90;;;;;;;7.79;100.00;96627.22;5050000;28;20432;-75
2023/01/06 08:49:27;;;;;;;3.23;2.93;;;;;;;7.77;100.00;96638.06;5063642;28;20436;-75
2023/01/06 08:51:54;;;;;;;2.53;2.30;;;;;;;7.85;100.00;96657.59;5069994;28;20442;-75
2023/01/06 08:54:21;;;;;;;2.93;2.73;;;;;;;7.71;100.00;96642.66;5055671;28;20870;-74
2023/01/06 08:56:48;;;;;;;3.07;2.77;;;;;;;7.86;100.00;96659.16;5057358;28;20470;-75
2023/01/06 08:59:16;;;;;;;2.47;2.27;;;;;;;7.74;100.00;96632.59;5069991;28;20438;-75
2023/01/06 09:01:43;;;;;;;2.30;2.10;;;;;;;7.87;100.00;96660.72;5062382;28;21029;-75
2023/01/06 09:04:11;;;;;;;2.83;2.20;;;;;;;7.94;100.00;96671.63;5068968;28;21063;-75
2023/01/06 09:06:42;;;;;;;2.43;2.23;;;;;;;7.96;100.00;96672.88;5058436;28;20806;-74
2023/01/06 09:09:10;;;;;;;1.93;1.83;;;;;;;7.84;100.00;96651.56;5073749;28;20494;-75
2023/01/06 09:11:40;;;;;;;2.10;1.90;;;;;;;7.86;100.00;96656.53;5063314;28;20432;-76
2023/01/06 09:14:07;;;;;;;1.50;1.40;;;;;;;7.70;100.00;96629.81;5069487;28;20452;-75
2023/01/06 09:16:34;;;;;;;2.20;2.00;;;;;;;7.82;100.00;96655.59;5058801;28;20421;-75
2023/01/06 09:19:00;;;;;;;1.93;1.70;;;;;;;8.01;100.00;96671.94;5064259;28;20890;-74
2023/01/06 09:21:27;;;;;;;1.90;1.70;;;;;;;7.93;100.00;96662.16;5061567;28;20529;-75
2023/01/06 09:23:57;;;;;;;1.80;1.70;;;;;;;8.02;100.00;96662.22;5055860;28;20444;-75
2023/01/06 09:26:24;;;;;;;1.70;1.53;;;;;;;8.14;100.00;96671.09;5057968;28;20437;-75
2023/01/06 09:28:50;;;;;;;1.90;1.20;;;;;;;8.02;100.00;96646.44;5067591;28;20436;-75
2023/01/06 09:31:17;;;;;;;1.80;1.70;;;;;;;7.99;100.00;96639.88;5078026;28;20793;-75
2023/01/06 09:33:44;;;;;;;1.30;1.20;;;;;;;8.14;100.00;96657.16;5052697;28;20437;-75
2023/01/06 09:36:10;;;;;;;2.30;1.90;;;;;;;8.08;100.00;96642.59;5069423;28;20823;-75
2023/01/06 09:38:37;;;;;;;1.47;1.37;;;;;;;8.14;100.00;96649.25;5055842;28;20432;-75
2023/01/06 09:41:07;;;;;;;1.40;1.30;;;;;;;8.29;100.00;96672.59;5070315;28;20449;-77
2023/01/06 09:43:57;;;;;;;1.40;1.30;;;;;;;8.28;100.00;96677.09;5089379;28;20409;-77
2023/01/06 09:46:32;;;;;;;4.70;4.30;;;;;;;8.33;100.00;96680.66;5091764;28;20408;-78
2023/01/06 09:48:59;;;;;;;49.90;30.37;;;;;;;8.41;100.00;96667.56;5081213;28;20958;-75
2023/01/06 09:51:28;;;;;;;20.70;11.33;;;;;;;8.23;100.00;96655.34;5071101;28;20424;-75
2023/01/06 09:54:04;;;;;;;8.10;5.10;;;;;;;8.36;100.00;96674.81;5054361;28;20471;-75
2023/01/06 09:56:31;;;;;;;3.80;3.40;;;;;;;8.44;100.00;96692.53;5070279;28;20417;-76
2023/01/06 09:59:04;;;;;;;24.03;16.30;;;;;;;8.44;100.00;96687.28;5064608;28;20940;-75
2023/01/06 10:01:36;;;;;;;4.27;3.70;;;;;;;8.19;100.00;96636.75;5080189;28;20462;-75
2023/01/06 10:04:03;;;;;;;14.60;10.40;;;;;;;8.36;100.00;96659.78;5077626;28;20439;-75
2023/01/06 10:06:43;;;;;;;14.30;12.80;;;;;;;8.27;100.00;96651.81;5062449;28;20928;-75
2023/01/06 10:09:30;;;;;;;1.70;1.40;;;;;;;8.41;100.00;96667.56;5089799;28;20426;-75
2023/01/06 10:12:27;;;;;;;2.23;2.03;;;;;;;8.26;100.00;96626.53;5074355;28;20440;-75
2023/01/06 10:15:13;;;;;;;1.80;1.70;;;;;;;8.56;100.00;96663.75;5052739;28;20548;-75
2023/01/06 10:18:07;;;;;;;2.60;2.40;;;;;;;8.63;100.00;96679.13;5072284;28;20432;-75
2023/01/06 10:20:58;;;;;;;1.60;1.50;;;;;;;8.71;100.00;96663.34;5069740;28;20429;-76
2023/01/06 10:23:33;;;;;;;2.00;1.53;;;;;;;8.45;100.00;96638.75;5066131;28;20460;-75
2023/01/06 10:26:15;;;;;;;2.60;1.33;;;;;;;8.61;100.00;96662.84;5064814;28;20512;-75
2023/01/06 10:28:47;;;;;;;1.30;1.20;;;;;;;8.26;100.00;96602.84;5066230;28;20413;-75
2023/01/06 10:31:18;;;;;;;3.03;1.07;;;;;;;8.42;100.00;96634.09;5063218;28;20435;-75
2023/01/06 10:33:49;;;;;;;1.50;1.40;;;;;;;8.51;100.00;96650.72;5072429;28;20444;-75
2023/01/06 10:36:25;;;;;;;2.37;1.30;;;;;;;8.34;100.00;96643.50;5072841;28;20518;-75
2023/01/06 10:38:56;;;;;;;1.20;1.00;;;;;;;8.37;100.00;96636.84;5056317;28;20435;-75
2023/01/06 10:41:42;;;;;;;1.30;1.20;;;;;;;8.25;100.00;96608.41;5058822;28;20439;-75
2023/01/06 10:44:12;;;;;;;1.37;1.27;;;;;;;8.44;100.00;96631.94;5062204;28;20572;-75
2023/01/06 10:46:40;;;;;;;1.30;1.20;;;;;;;8.36;100.00;96619.50;5049237;28;20449;-75
2023/01/06 10:49:14;;;;;;;1.23;1.13;;;;;;;8.46;100.00;96630.56;5063196;28;20963;-75
2023/01/06 10:51:48;;;;;;;1.40;1.30;;;;;;;8.39;100.00;96624.16;5058778;28;20538;-75
2023/01/06 10:54:21;;;;;;;1.37;1.27;;;;;;;8.17;100.00;96604.69;5066006;28;20448;-75
2023/01/06 10:57:13;;;;;;;2.03;1.90;;;;;;;8.25;100.00;96625.00;5068257;28;20905;-75
2023/01/06 11:00:10;;;;;;;1.90;1.60;;;;;;;8.37;100.00;96652.66;5072062;28;20428;-75
2023/01/06 11:02:45;;;;;;;2.30;1.20;;;;;;;8.27;100.00;96628.09;5068016;28;20896;-75
2023/01/06 11:05:15;;;;;;;1.80;1.70;;;;;;;8.33;100.00;96649.06;5071516;28;20466;-75
2023/01/06 11:07:53;;;;;;;1.73;1.20;;;;;;;8.14;100.00;96628.19;5062352;28;20435;-75
2023/01/06 11:10:28;;;;;;;1.80;1.40;;;;;;;8.29;100.00;96654.94;5059595;28;20425;-75
2023/01/06 11:13:01;;;;;;;1.67;0.97;;;;;;;8.11;100.00;96623.53;5058464;28;20470;-74
2023/01/06 11:15:37;;;;;;;1.50;1.20;;;;;;;8.24;100.00;96638.47;5060897;28;20456;-75
2023/01/06 11:18:05;;;;;;;1.87;1.40;;;;;;;7.95;100.00;96591.56;5055224;28;20538;-75
2023/01/06 11:20:34;;;;;;;1.60;1.50;;;;;;;8.34;100.00;96647.97;5071685;28;20535;-74
2023/01/06 11:23:33;;;;;;;1.60;1.50;;;;;;;8.18;100.00;96622.03;5061926;28;21003;-74
2023/01/06 11:26:00;;;;;;;1.83;1.17;;;;;;;8.28;100.00;96628.91;5029552;28;20540;-75
2023/01/06 11:28:27;;;;;;;1.77;1.43;;;;;;;8.06;100.00;96603.38;5065303;28;20935;-75
2023/01/06 11:31:01;;;;;;;2.20;1.17;;;;;;;8.27;100.00;96627.31;5059320;28;20524;-75
2023/01/06 11:33:31;;;;;;;1.20;0.90;;;;;;;7.96;100.00;96601.00;5071651;28;20515;-75
2023/01/06 11:36:06;;;;;;;2.17;1.47;;;;;;;7.97;100.00;96597.28;5071738;28;20900;-75
2023/01/06 11:38:44;;;;;;;3.03;1.77;;;;;;;8.11;100.00;96607.72;5058359;28;20412;-75
2023/01/06 11:41:12;;;;;;;7.40;2.50;;;;;;;8.27;100.00;96643.91;5062795;28;20464;-75
2023/01/06 11:43:44;;;;;;;2.13;1.50;;;;;;;8.22;100.00;96628.25;5065515;28;20473;-75
2023/01/06 11:46:14;;;;;;;1.70;1.27;;;;;;;8.17;100.00;96628.38;5064582;28;20511;-75
2023/01/06 11:48:53;;;;;;;1.90;1.17;;;;;;;8.12;100.00;96628.50;5059672;28;20456;-75
2023/01/06 11:51:42;;;;;;;1.60;1.13;;;;;;;8.04;100.00;96602.13;5059590;28;20524;-76